AirNav   Duncan Aviation - Near you to keep you flying
 
 1854 users online  

KAJO Corona Municipal Airport
Corona, California, USA

GOING TO CORONA?


FAA INFORMATION EFFECTIVE 11 AUGUST 2022

Location

FAA Identifier: AJO
Lat/Long: 33-53-51.5547N 117-36-08.7831W
33-53.859245N 117-36.146385W
33.8976541,-117.6024398
(estimated)
Elevation: 533 ft. / 162.5 m (surveyed)
Variation: 14E (1980)
From city: 3 miles NW of CORONA, CA
Time zone: UTC -7 (UTC -8 during Standard Time)
Zip code: 92880

Airport Operations

Airport use: Open to the public
Activation date: 04/1960
Control tower: no
ARTCC: LOS ANGELES CENTER
FSS: RIVERSIDE FLIGHT SERVICE STATION
NOTAMs facility: AJO (NOTAM-D service available)
Attendance: MON-FRI 0700-1700
Pattern altitude: NO TURNS ONTO XW LEG TIL ACFT IS WI 300 FT OF RECOMMENDED TPA.
Wind indicator: lighted
Segmented circle: yes
Lights: ACTVT MIRL RY 07/25 VASI & REIL RY 25 - CTAF.
Beacon: white-green (lighted land airport)
Operates sunset to sunrise.

Airport Communications

CTAF/UNICOM: 122.7
WX AWOS-3PT: 132.175 (951-340-4764)
SOCAL APPROACH: 127.0 ;NORTH-NE 135.4
SOCAL DEPARTURE: 127.0 ;NORTH-NE 135.4
CLASS C: 127.0 ;NORTH-NE 135.4 ;SOUTH-SW
IC: 127.0 ;NORTH-NE
WX ASOS at CNO (5 nm N): PHONE 909-393-5823
WX ASOS at RAL (8 nm NE): 128.8 (951-352-4392)
WX ASOS at ONT (10 nm N): PHONE 909-937-2186
WX AWOS-3P at CCB (14 nm N): 119.525 (909-985-4731)
WX AWOS-3PT at POC (15 nm NW): 124.4 (909-596-1523)
WX ASOS at SNA (19 nm SW): PHONE 714-424-0590
WX ASOS at FUL (19 nm W): PHONE 714-870-1372

Nearby radio navigation aids

VOR radial/distance  VOR name  Freq  Var
PDZr236/3.8PARADISE VORTAC112.2015E
RALr232/(8.3)RIVERSIDE VOR108.6014E
POMr125/14.2POMONA VORTAC110.4015E
ELBr012/14.8EL TORO VOR/DME117.2014E
HDFr275/(22.0)HOMELAND VOR112.0514E
SLIr058/23.6SEAL BEACH VORTAC115.7015E

Airport Services

Fuel available: 100LL
Parking: tiedowns
Airframe service: MAJOR
Powerplant service: MAJOR
Bottled oxygen: NONE
Bulk oxygen: NONE

Runway Information

Runway 7/25

Dimensions: 3200 x 60 ft. / 975 x 18 m
Surface: asphalt, in fair condition
Weight bearing capacity: 
Single wheel: 12.0
Runway edge lights: medium intensity
RUNWAY 7  RUNWAY 25
Latitude: 33-53.855827N33-53.863912N
Longitude: 117-36.462810W117-35.830277W
Elevation: 515.0 ft.533.0 ft.
Traffic pattern: rightleft
Runway heading: 075 magnetic, 089 true255 magnetic, 269 true
Displaced threshold: 194 ft.196 ft.
Markings: basic, in fair conditionbasic, in fair condition
Visual slope indicator: 4-box VASI on left (4.00 degrees glide path)
Runway end identifier lights: yes
Touchdown point: yes, no lightsyes, no lights
Obstructions: 40 ft. trees, 400 ft. from runway, 265 ft. both sides of centerline, 5:1 slope to clear
RWY 07 APCH RATIO TO DSPLCD THR 20:1
6 ft. fence, lighted, 200 ft. from runway
RWY 25 APCH RATIO TO DSPLCD THR 34:1.

Airport Ownership and Management from official FAA records

Ownership: Publicly-owned
Owner: CITY OF CORONA
400 SOUTH VICENTIA AVE
CORONA, CA 92882
Phone 951-736-2289
ON LEASE TO CITY OF CORONA FROM ARMY CORPS OF ENGINEERS.
Manager: CYNTHIA LARA
400 SOUTH VICENTIA AVE
CORONA, CA 92882
Phone 951-532-9405
AIRPORT ADDRESS: 1900 AVIATION DRIVE, CORONA, CA 92880.

Airport Operational Statistics

Aircraft based on the field: 130
Single engine airplanes: 115
Multi engine airplanes: 11
Helicopters: 2
Gliders airplanes: 2
    
Aircraft operations: avg 96/day *
80% local general aviation
20% transient general aviation
* for 12-month period ending 30 November 2020

Additional Remarks

NOISE ABATEMENT PROCEDURES: RY 25 STRAIGHT-IN APCH NOT RECOMMENDED. AVOID FLYING OVER HOUSES ON BLUFF AT EAST END. FLY OVER WASH/CREEK. RY 07 REQUIRES A 15 DEG RIGHT TURN AT DEP END TO FOLLOW WASH/CREEK.
UNLGTD TWR 828 FT MSL 3 MILES E OF ARPT.
NO INTERSECTION TAKEOFFS.
NO TOUCH AND GO OPERATIONS ON WKNDS AND HOLS.
NO HELICOPTER TRNG AFTER 2000
FOR CD CTC SOCAL APCH AT 800-448-3724.

Instrument Procedures

NOTE: All procedures below are presented as PDF files. If you need a reader for these files, you should download the free Adobe Reader.

NOT FOR NAVIGATION. Please procure official charts for flight.
FAA instrument procedures published for use from 11 August 2022 at 0901Z to 08 September 2022 at 0900z.

 
STARs - Standard Terminal Arrivals
SETER FIVE   download (269KB)
ZIGGY SEVEN   2 pages: [1] [2] (445KB)
 
IAPs - Instrument Approach Procedures
VOR OR GPS-A   download (239KB)
NOTE: Special Take-Off Minimums/Departure Procedures apply   download (132KB)

Other nearby airports with instrument procedures:

KCNO - Chino Airport (5 nm N)
KRAL - Riverside Municipal Airport (8 nm NE)
KONT - Ontario International Airport (10 nm N)
KRIR - Flabob Airport (11 nm NE)
KCCB - Cable Airport (14 nm N)
KPOC - Brackett Field Airport (15 nm NW)
KRIV - March Air Reserve Base (17 nm E)
KSNA - John Wayne/Orange County Airport (19 nm SW)
KFUL - Fullerton Municipal Airport (19 nm W)
 
Loc | Ops | Rwys | IFR | FBO | Links
Com | Nav | Svcs | Stats | Notes

Luxivair - San Bernardino International Airport
 
Area around KAJO (Corona Municipal Airport)
 
Road maps at: MapQuest Bing Google
 
Aerial photo
WARNING: Photo may not be current or correct
Aerial photo of KAJO (Corona Municipal Airport)
Photo by Fred Emmert AirViews.com
Photo taken 09-Feb-2015
looking southeast.

Do you have a better or more recent aerial photo of Corona Municipal Airport that you would like to share? If so, please send us your photo.

 
Sectional chart

 
Airport diagram
CAUTION: Diagram may not be current
Diagram of KAJO (Corona Municipal Airport)
 
Airport distance calculator
Flying to Corona Municipal Airport? Find the distance to fly.

From to KAJO

Sunrise and sunset
Times for 18-Aug-2022
 Local
(UTC-7)
 Zulu
(UTC)
Morning civil twilight05:4912:49
Sunrise06:1513:15
Sunset19:3302:33
Evening civil twilight19:5902:59

Current date and time
Zulu (UTC)  18-Aug-2022 19:30:44
Local (UTC-7)  18-Aug-2022 12:30:44
 
METAR
KAJO 181856Z AUTO 29010KT 10SM CLR 31/17 A2992 RMK AO2 SLP123 T03060167
KCNO 
5nm N 
181853Z VRB06KT 10SM BKN150 33/14 A2993 RMK AO2 SLP126 T03330139
KRAL 
8nm NE 
181853Z VRB06KT 10SM CLR 33/10 A2992 RMK AO2 SLP115 T03280100
KONT 
9nm N 
181853Z 20006KT 10SM BKN140 30/11 A2993 RMK AO2 SLP116 ACC OHD T03000106
KCCB 
14nm N 
119.525 909-985-4731
181910Z AUTO 27007G12KT 10SM CLR 30/10 A2995 RMK AO2
KPOC 
15nm NW 
181847Z 27007KT 10SM CLR 30/14 A2995
KRIV 
17nm E 
181858Z AUTO 34006KT 10SM CLR 34/09 A2995 RMK AO2 SLP125 T03360089
KFUL 
19nm W 
181853Z 19007KT 160V230 10SM CLR 29/17 A2990 RMK AO2 SLP125 T02940167
KSNA 
19nm SW 
181853Z 23007KT 200V270 10SM FEW160 26/17 A2992 RMK AO2 SLP132 T02610167
TAF
KONT 
9nm N 
181722Z 1818/1924 VRB04KT P6SM SCT100 FM182000 25012G20KT P6SM SCT100 FM190400 25006KT P6SM SCT100 FM191000 VRB03KT 5SM HZ SCT008 FM192000 26012G20KT P6SM SCT100
KRIV 
17nm E 
181200Z 1812/1918 VRB04KT 9999 FEW120 FEW250 QNH2995INS BECMG 1818/1819 32009KT 9999 FEW120 SCT250 510005 QNH2986INS TS OMTNS NE TEMPO 1821/1902 32012G20KT BECMG 1901/1902 32009KT 9999 FEW120 FEW250 QNH2987INS BECMG 1905/1906 VRB04KT 9999 FEW120 FEW250 QNH2984INS TX37/1822Z TN20/1813Z
KSNA 
19nm SW 
181722Z 1818/1918 VRB04KT P6SM SKC FM182000 22009KT P6SM SKC FM190300 VRB04KT P6SM SCT011 FM190700 VRB03KT P6SM BKN011 FM191600 VRB04KT P6SM SCT011
NOTAMs
Click for the latest NOTAMs
NOTAMs are issued by the DoD/FAA and will open in a separate window not controlled by AirNav.

 

 
 

Would you like to see your business listed on this page?

 If your business provides an interesting product or service to pilots, flight crews, aircraft, or users of the Corona Municipal Airport, you should consider listing it here.  To start the listing process, click on the button below
 
Add a business
 

Other Pages about Corona Municipal Airport

discovercorona.com/...
 
Update a link
 
Copyright © AirNav, LLC. All rights reserved. Privacy Policy  Contact